sensor_id;sensor_type;location;lat;lon;timestamp;pressure;altitude;pressure_sealevel;temperature;humidity
58473;BME280;44775;51.564;5.460;2023-11-21T00:02:09;100782.06;;;5.90;100.00
58473;BME280;44775;51.564;5.460;2023-11-21T00:04:35;100776.75;;;5.90;100.00
58473;BME280;44775;51.564;5.460;2023-11-21T00:07:00;100777.75;;;5.89;100.00
58473;BME280;44775;51.564;5.460;2023-11-21T00:09:25;100785.03;;;5.87;100.00
58473;BME280;44775;51.564;5.460;2023-11-21T00:11:51;100783.59;;;5.83;100.00
58473;BME280;44775;51.564;5.460;2023-11-21T00:14:16;100791.16;;;5.78;100.00
58473;BME280;44775;51.564;5.460;2023-11-21T00:16:41;100787.94;;;5.75;100.00
58473;BME280;44775;51.564;5.460;2023-11-21T00:19:07;100790.72;;;5.73;100.00
58473;BME280;44775;51.564;5.460;2023-11-21T00:21:32;100792.97;;;5.68;100.00
58473;BME280;44775;51.564;5.460;2023-11-21T00:23:57;100786.38;;;5.62;100.00
58473;BME280;44775;51.564;5.460;2023-11-21T00:26:23;100791.97;;;5.59;100.00
58473;BME280;44775;51.564;5.460;2023-11-21T00:28:49;100790.03;;;5.61;100.00
58473;BME280;44775;51.564;5.460;2023-11-21T00:31:15;100783.59;;;5.54;100.00
58473;BME280;44775;51.564;5.460;2023-11-21T00:33:40;100790.69;;;5.44;100.00
58473;BME280;44775;51.564;5.460;2023-11-21T00:36:06;100791.66;;;5.33;100.00
58473;BME280;44775;51.564;5.460;2023-11-21T00:38:35;100780.19;;;5.23;100.00
58473;BME280;44775;51.564;5.460;2023-11-21T00:41:01;100787.97;;;5.15;100.00
58473;BME280;44775;51.564;5.460;2023-11-21T00:43:26;100780.69;;;5.07;100.00
58473;BME280;44775;51.564;5.460;2023-11-21T00:45:51;100784.88;;;5.00;100.00
58473;BME280;44775;51.564;5.460;2023-11-21T00:48:17;100784.31;;;4.96;100.00
58473;BME280;44775;51.564;5.460;2023-11-21T00:50:43;100794.47;;;5.01;100.00
58473;BME280;44775;51.564;5.460;2023-11-21T00:53:08;100798.63;;;4.94;100.00
58473;BME280;44775;51.564;5.460;2023-11-21T00:55:33;100790.97;;;4.91;100.00
58473;BME280;44775;51.564;5.460;2023-11-21T00:57:59;100794.53;;;4.80;100.00
58473;BME280;44775;51.564;5.460;2023-11-21T01:00:25;100794.69;;;4.88;100.00
58473;BME280;44775;51.564;5.460;2023-11-21T01:02:51;100802.06;;;4.85;100.00
58473;BME280;44775;51.564;5.460;2023-11-21T01:05:16;100798.53;;;4.74;100.00
58473;BME280;44775;51.564;5.460;2023-11-21T01:07:41;100810.84;;;4.85;100.00
58473;BME280;44775;51.564;5.460;2023-11-21T01:10:07;100799.94;;;4.79;100.00
58473;BME280;44775;51.564;5.460;2023-11-21T01:12:34;100814.75;;;4.81;100.00
58473;BME280;44775;51.564;5.460;2023-11-21T01:15:01;100811.66;;;4.76;100.00
58473;BME280;44775;51.564;5.460;2023-11-21T01:17:26;100811.09;;;4.72;100.00
58473;BME280;44775;51.564;5.460;2023-11-21T01:19:52;100822.81;;;4.80;100.00
58473;BME280;44775;51.564;5.460;2023-11-21T01:22:17;100825.16;;;4.73;100.00
58473;BME280;44775;51.564;5.460;2023-11-21T01:24:44;100826.97;;;4.72;100.00
58473;BME280;44775;51.564;5.460;2023-11-21T01:27:10;100828.31;;;4.67;100.00
58473;BME280;44775;51.564;5.460;2023-11-21T01:29:35;100833.72;;;4.65;100.00
58473;BME280;44775;51.564;5.460;2023-11-21T01:32:02;100834.72;;;4.64;100.00
58473;BME280;44775;51.564;5.460;2023-11-21T01:34:28;100830.09;;;4.57;100.00
58473;BME280;44775;51.564;5.460;2023-11-21T01:36:53;100840.16;;;4.63;100.00
58473;BME280;44775;51.564;5.460;2023-11-21T01:39:19;100834.31;;;4.69;100.00
58473;BME280;44775;51.564;5.460;2023-11-21T01:41:49;100838.66;;;4.70;100.00
58473;BME280;44775;51.564;5.460;2023-11-21T01:44:14;100846.66;;;4.80;100.00
58473;BME280;44775;51.564;5.460;2023-11-21T01:46:40;100840.31;;;4.71;100.00
58473;BME280;44775;51.564;5.460;2023-11-21T01:49:06;100845.22;;;4.76;100.00
58473;BME280;44775;51.564;5.460;2023-11-21T01:51:32;100841.03;;;4.73;100.00
58473;BME280;44775;51.564;5.460;2023-11-21T01:53:58;100847.88;;;4.76;100.00
58473;BME280;44775;51.564;5.460;2023-11-21T01:56:24;100845.09;;;4.77;100.00
58473;BME280;44775;51.564;5.460;2023-11-21T01:58:51;100848.91;;;4.84;100.00
58473;BME280;44775;51.564;5.460;2023-11-21T02:01:16;100843.84;;;4.81;100.00
58473;BME280;44775;51.564;5.460;2023-11-21T02:03:43;100845.78;;;4.79;100.00
58473;BME280;44775;51.564;5.460;2023-11-21T02:06:08;100848.00;;;4.74;100.00
58473;BME280;44775;51.564;5.460;2023-11-21T02:08:34;100841.31;;;4.70;100.00
58473;BME280;44775;51.564;5.460;2023-11-21T02:10:59;100859.56;;;4.73;100.00
58473;BME280;44775;51.564;5.460;2023-11-21T02:13:24;100859.16;;;4.78;100.00
58473;BME280;44775;51.564;5.460;2023-11-21T02:15:50;100858.91;;;4.81;100.00
58473;BME280;44775;51.564;5.460;2023-11-21T02:18:17;100851.50;;;4.74;100.00
58473;BME280;44775;51.564;5.460;2023-11-21T02:20:43;100858.59;;;4.74;100.00
58473;BME280;44775;51.564;5.460;2023-11-21T02:23:08;100863.88;;;4.74;100.00
58473;BME280;44775;51.564;5.460;2023-11-21T02:25:33;100873.06;;;4.70;100.00
58473;BME280;44775;51.564;5.460;2023-11-21T02:28:00;100878.38;;;4.70;100.00
58473;BME280;44775;51.564;5.460;2023-11-21T02:30:26;100871.09;;;4.72;100.00
58473;BME280;44775;51.564;5.460;2023-11-21T02:32:53;100877.53;;;4.69;100.00
58473;BME280;44775;51.564;5.460;2023-11-21T02:35:19;100886.03;;;4.73;100.00
58473;BME280;44775;51.564;5.460;2023-11-21T02:37:46;100881.69;;;4.72;100.00
58473;BME280;44775;51.564;5.460;2023-11-21T02:40:12;100881.25;;;4.67;100.00
58473;BME280;44775;51.564;5.460;2023-11-21T02:42:38;100882.25;;;4.66;100.00
58473;BME280;44775;51.564;5.460;2023-11-21T02:45:03;100880.28;;;4.68;100.00
58473;BME280;44775;51.564;5.460;2023-11-21T02:47:30;100883.66;;;4.70;100.00
58473;BME280;44775;51.564;5.460;2023-11-21T02:49:55;100890.03;;;4.67;100.00
58473;BME280;44775;51.564;5.460;2023-11-21T02:52:21;100894.50;;;4.67;100.00
58473;BME280;44775;51.564;5.460;2023-11-21T02:54:46;100891.13;;;4.65;100.00
58473;BME280;44775;51.564;5.460;2023-11-21T02:57:12;100889.47;;;4.64;100.00
58473;BME280;44775;51.564;5.460;2023-11-21T02:59:37;100875.06;;;4.57;100.00
58473;BME280;44775;51.564;5.460;2023-11-21T03:02:02;100878.16;;;4.62;100.00
58473;BME280;44775;51.564;5.460;2023-11-21T03:04:28;100881.53;;;4.64;100.00
58473;BME280;44775;51.564;5.460;2023-11-21T03:06:53;100882.63;;;4.61;100.00
58473;BME280;44775;51.564;5.460;2023-11-21T03:09:18;100883.00;;;4.57;100.00
58473;BME280;44775;51.564;5.460;2023-11-21T03:11:44;100887.31;;;4.58;100.00
58473;BME280;44775;51.564;5.460;2023-11-21T03:14:09;100884.09;;;4.54;100.00
58473;BME280;44775;51.564;5.460;2023-11-21T03:16:35;100886.75;;;4.54;100.00
58473;BME280;44775;51.564;5.460;2023-11-21T03:19:01;100889.66;;;4.51;100.00
58473;BME280;44775;51.564;5.460;2023-11-21T03:21:26;100896.75;;;4.50;100.00
58473;BME280;44775;51.564;5.460;2023-11-21T03:23:51;100897.97;;;4.46;100.00
58473;BME280;44775;51.564;5.460;2023-11-21T03:26:17;100897.41;;;4.43;100.00
58473;BME280;44775;51.564;5.460;2023-11-21T03:28:43;100898.47;;;4.40;100.00
58473;BME280;44775;51.564;5.460;2023-11-21T03:31:08;100902.34;;;4.36;100.00
58473;BME280;44775;51.564;5.460;2023-11-21T03:33:36;100906.22;;;4.32;100.00
58473;BME280;44775;51.564;5.460;2023-11-21T03:36:02;100910.06;;;4.28;100.00
58473;BME280;44775;51.564;5.460;2023-11-21T03:38:28;100909.63;;;4.23;100.00
58473;BME280;44775;51.564;5.460;2023-11-21T03:40:54;100903.84;;;4.18;100.00
58473;BME280;44775;51.564;5.460;2023-11-21T03:43:19;100902.34;;;4.15;100.00
58473;BME280;44775;51.564;5.460;2023-11-21T03:45:44;100901.75;;;4.12;100.00
58473;BME280;44775;51.564;5.460;2023-11-21T03:48:12;100907.03;;;4.12;100.00
58473;BME280;44775;51.564;5.460;2023-11-21T03:50:37;100904.03;;;4.05;100.00
58473;BME280;44775;51.564;5.460;2023-11-21T03:53:02;100912.22;;;4.02;100.00
58473;BME280;44775;51.564;5.460;2023-11-21T03:55:28;100905.47;;;3.98;100.00
58473;BME280;44775;51.564;5.460;2023-11-21T03:57:56;100918.13;;;3.94;100.00
58473;BME280;44775;51.564;5.460;2023-11-21T04:00:22;100908.41;;;3.95;100.00
58473;BME280;44775;51.564;5.460;2023-11-21T04:02:47;100914.88;;;3.91;100.00
58473;BME280;44775;51.564;5.460;2023-11-21T04:05:13;100921.72;;;3.93;100.00
58473;BME280;44775;51.564;5.460;2023-11-21T04:07:38;100925.22;;;3.94;100.00
58473;BME280;44775;51.564;5.460;2023-11-21T04:10:08;100940.00;;;3.96;100.00
58473;BME280;44775;51.564;5.460;2023-11-21T04:12:35;100939.84;;;3.98;100.00
58473;BME280;44775;51.564;5.460;2023-11-21T04:15:00;100934.84;;;3.95;100.00
58473;BME280;44775;51.564;5.460;2023-11-21T04:17:25;100936.50;;;3.96;100.00
58473;BME280;44775;51.564;5.460;2023-11-21T04:19:51;100937.22;;;3.98;100.00
58473;BME280;44775;51.564;5.460;2023-11-21T04:22:16;100942.50;;;3.98;100.00
58473;BME280;44775;51.564;5.460;2023-11-21T04:24:41;100940.97;;;3.95;100.00
58473;BME280;44775;51.564;5.460;2023-11-21T04:27:07;100951.31;;;3.98;100.00
58473;BME280;44775;51.564;5.460;2023-11-21T04:29:33;100950.56;;;3.96;100.00
58473;BME280;44775;51.564;5.460;2023-11-21T04:31:58;100959.94;;;4.00;100.00
58473;BME280;44775;51.564;5.460;2023-11-21T04:34:23;100962.72;;;3.99;100.00
58473;BME280;44775;51.564;5.460;2023-11-21T04:36:49;100963.78;;;3.96;100.00
58473;BME280;44775;51.564;5.460;2023-11-21T04:39:15;100959.47;;;3.95;100.00
58473;BME280;44775;51.564;5.460;2023-11-21T04:41:40;100951.78;;;3.92;100.00
58473;BME280;44775;51.564;5.460;2023-11-21T04:44:06;100965.84;;;3.93;100.00
58473;BME280;44775;51.564;5.460;2023-11-21T04:46:31;100966.69;;;3.93;100.00
58473;BME280;44775;51.564;5.460;2023-11-21T04:48:57;100963.66;;;3.98;100.00
58473;BME280;44775;51.564;5.460;2023-11-21T04:51:23;100972.81;;;4.05;100.00
58473;BME280;44775;51.564;5.460;2023-11-21T04:53:48;100977.81;;;4.08;100.00
58473;BME280;44775;51.564;5.460;2023-11-21T04:56:13;100967.72;;;4.13;100.00
58473;BME280;44775;51.564;5.460;2023-11-21T04:58:39;100979.72;;;4.17;100.00
58473;BME280;44775;51.564;5.460;2023-11-21T05:01:05;100978.50;;;4.21;100.00
58473;BME280;44775;51.564;5.460;2023-11-21T05:03:32;100989.56;;;4.26;100.00
58473;BME280;44775;51.564;5.460;2023-11-21T05:05:57;100993.63;;;4.31;100.00
58473;BME280;44775;51.564;5.460;2023-11-21T05:08:22;100993.25;;;4.46;100.00
58473;BME280;44775;51.564;5.460;2023-11-21T05:10:49;100999.97;;;4.50;100.00
58473;BME280;44775;51.564;5.460;2023-11-21T05:13:15;101000.69;;;4.41;100.00
58473;BME280;44775;51.564;5.460;2023-11-21T05:15:42;100993.50;;;4.43;100.00
58473;BME280;44775;51.564;5.460;2023-11-21T05:18:08;101006.47;;;4.46;100.00
58473;BME280;44775;51.564;5.460;2023-11-21T05:20:33;101010.78;;;4.47;100.00
58473;BME280;44775;51.564;5.460;2023-11-21T05:22:58;101008.28;;;4.46;100.00
58473;BME280;44775;51.564;5.460;2023-11-21T05:25:24;101013.34;;;4.49;100.00
58473;BME280;44775;51.564;5.460;2023-11-21T05:27:49;101001.88;;;4.48;100.00
58473;BME280;44775;51.564;5.460;2023-11-21T05:30:14;101008.38;;;4.56;100.00
58473;BME280;44775;51.564;5.460;2023-11-21T05:32:40;101016.19;;;4.57;100.00
58473;BME280;44775;51.564;5.460;2023-11-21T05:35:09;101013.66;;;4.56;100.00
58473;BME280;44775;51.564;5.460;2023-11-21T05:37:39;101020.63;;;4.57;100.00
58473;BME280;44775;51.564;5.460;2023-11-21T05:40:05;101027.34;;;4.61;100.00
58473;BME280;44775;51.564;5.460;2023-11-21T05:42:35;101029.59;;;4.65;100.00
58473;BME280;44775;51.564;5.460;2023-11-21T05:45:01;101031.91;;;4.70;100.00
58473;BME280;44775;51.564;5.460;2023-11-21T05:47:54;101038.63;;;4.74;100.00
58473;BME280;44775;51.564;5.460;2023-11-21T05:50:20;101042.25;;;4.73;100.00
58473;BME280;44775;51.564;5.460;2023-11-21T05:52:47;101043.66;;;4.77;100.00
58473;BME280;44775;51.564;5.460;2023-11-21T05:55:13;101047.16;;;4.78;100.00
58473;BME280;44775;51.564;5.460;2023-11-21T05:57:40;101047.72;;;4.81;100.00
58473;BME280;44775;51.564;5.460;2023-11-21T06:00:10;101054.00;;;4.80;100.00
58473;BME280;44775;51.564;5.460;2023-11-21T06:02:40;101051.94;;;4.84;100.00
58473;BME280;44775;51.564;5.460;2023-11-21T06:05:08;101058.41;;;4.91;100.00
58473;BME280;44775;51.564;5.460;2023-11-21T06:07:34;101059.97;;;4.93;100.00
58473;BME280;44775;51.564;5.460;2023-11-21T06:10:03;101057.19;;;4.95;100.00
58473;BME280;44775;51.564;5.460;2023-11-21T06:12:32;101065.97;;;4.95;100.00
58473;BME280;44775;51.564;5.460;2023-11-21T06:15:03;101063.91;;;4.99;100.00
58473;BME280;44775;51.564;5.460;2023-11-21T06:17:33;101063.91;;;4.99;100.00
58473;BME280;44775;51.564;5.460;2023-11-21T06:20:01;101058.34;;;5.02;100.00
58473;BME280;44775;51.564;5.460;2023-11-21T06:22:29;101072.91;;;5.08;100.00
58473;BME280;44775;51.564;5.460;2023-11-21T06:24:55;101082.53;;;5.09;100.00
58473;BME280;44775;51.564;5.460;2023-11-21T06:27:21;101077.38;;;5.07;100.00
58473;BME280;44775;51.564;5.460;2023-11-21T06:29:46;101083.00;;;5.14;100.00
58473;BME280;44775;51.564;5.460;2023-11-21T06:32:12;101089.97;;;5.15;100.00
58473;BME280;44775;51.564;5.460;2023-11-21T06:34:37;101086.34;;;5.16;100.00
58473;BME280;44775;51.564;5.460;2023-11-21T06:37:03;101087.06;;;5.18;100.00
58473;BME280;44775;51.564;5.460;2023-11-21T06:39:28;101088.47;;;5.22;100.00
58473;BME280;44775;51.564;5.460;2023-11-21T06:41:53;101094.63;;;5.22;100.00
58473;BME280;44775;51.564;5.460;2023-11-21T06:44:19;101083.91;;;5.24;100.00
58473;BME280;44775;51.564;5.460;2023-11-21T06:46:45;101094.38;;;5.26;100.00
58473;BME280;44775;51.564;5.460;2023-11-21T06:49:10;101095.94;;;5.28;100.00
58473;BME280;44775;51.564;5.460;2023-11-21T06:51:36;101099.16;;;5.32;100.00
58473;BME280;44775;51.564;5.460;2023-11-21T06:54:01;101100.25;;;5.29;100.00
58473;BME280;44775;51.564;5.460;2023-11-21T06:56:26;101099.88;;;5.34;100.00
58473;BME280;44775;51.564;5.460;2023-11-21T06:58:52;101099.28;;;5.30;100.00
58473;BME280;44775;51.564;5.460;2023-11-21T07:01:20;101103.22;;;5.36;100.00
58473;BME280;44775;51.564;5.460;2023-11-21T07:03:45;101104.06;;;5.36;100.00
58473;BME280;44775;51.564;5.460;2023-11-21T07:06:11;101119.34;;;5.44;100.00
58473;BME280;44775;51.564;5.460;2023-11-21T07:08:37;101118.75;;;5.40;100.00
58473;BME280;44775;51.564;5.460;2023-11-21T07:11:05;101125.59;;;5.43;100.00
58473;BME280;44775;51.564;5.460;2023-11-21T07:13:31;101123.47;;;5.37;100.00
58473;BME280;44775;51.564;5.460;2023-11-21T07:15:59;101124.31;;;5.37;100.00
58473;BME280;44775;51.564;5.460;2023-11-21T07:18:24;101131.75;;;5.43;100.00
58473;BME280;44775;51.564;5.460;2023-11-21T07:20:49;101140.97;;;5.49;100.00
58473;BME280;44775;51.564;5.460;2023-11-21T07:23:14;101143.88;;;5.46;100.00
58473;BME280;44775;51.564;5.460;2023-11-21T07:25:40;101149.06;;;5.48;100.00
58473;BME280;44775;51.564;5.460;2023-11-21T07:28:06;101142.38;;;5.32;100.00
58473;BME280;44775;51.564;5.460;2023-11-21T07:30:33;101157.34;;;5.33;100.00
58473;BME280;44775;51.564;5.460;2023-11-21T07:32:58;101159.66;;;5.27;100.00
58473;BME280;44775;51.564;5.460;2023-11-21T07:35:24;101159.66;;;5.27;100.00
58473;BME280;44775;51.564;5.460;2023-11-21T07:37:49;101168.31;;;5.50;100.00
58473;BME280;44775;51.564;5.460;2023-11-21T07:40:14;101165.97;;;5.67;100.00
58473;BME280;44775;51.564;5.460;2023-11-21T07:42:40;101167.38;;;5.51;100.00
58473;BME280;44775;51.564;5.460;2023-11-21T07:45:08;101172.44;;;5.54;100.00
58473;BME280;44775;51.564;5.460;2023-11-21T07:47:33;101169.81;;;5.63;100.00
58473;BME280;44775;51.564;5.460;2023-11-21T07:50:00;101179.41;;;5.76;100.00
58473;BME280;44775;51.564;5.460;2023-11-21T07:52:25;101177.34;;;5.79;100.00
58473;BME280;44775;51.564;5.460;2023-11-21T07:54:50;101180.81;;;5.80;100.00
58473;BME280;44775;51.564;5.460;2023-11-21T07:57:16;101193.75;;;5.73;100.00
58473;BME280;44775;51.564;5.460;2023-11-21T07:59:41;101183.41;;;5.70;100.00
58473;BME280;44775;51.564;5.460;2023-11-21T08:02:07;101196.47;;;5.94;100.00
58473;BME280;44775;51.564;5.460;2023-11-21T08:04:32;101201.47;;;5.97;100.00
58473;BME280;44775;51.564;5.460;2023-11-21T08:06:59;101195.56;;;6.05;100.00
58473;BME280;44775;51.564;5.460;2023-11-21T08:09:24;101189.44;;;6.14;100.00
58473;BME280;44775;51.564;5.460;2023-11-21T08:11:50;101201.28;;;6.10;100.00
58473;BME280;44775;51.564;5.460;2023-11-21T08:14:17;101194.75;;;6.14;100.00
58473;BME280;44775;51.564;5.460;2023-11-21T08:16:42;101203.91;;;6.31;100.00
58473;BME280;44775;51.564;5.460;2023-11-21T08:19:07;101206.88;;;6.37;100.00
58473;BME280;44775;51.564;5.460;2023-11-21T08:21:34;101208.31;;;6.42;100.00
58473;BME280;44775;51.564;5.460;2023-11-21T08:24:02;101212.22;;;6.47;100.00
58473;BME280;44775;51.564;5.460;2023-11-21T08:26:29;101215.88;;;6.46;100.00
58473;BME280;44775;51.564;5.460;2023-11-21T08:28:54;101227.06;;;6.50;100.00
58473;BME280;44775;51.564;5.460;2023-11-21T08:31:27;101218.84;;;6.53;100.00
58473;BME280;44775;51.564;5.460;2023-11-21T08:33:52;101209.06;;;6.53;100.00
58473;BME280;44775;51.564;5.460;2023-11-21T08:36:22;101224.56;;;6.58;100.00
58473;BME280;44775;51.564;5.460;2023-11-21T08:38:49;101233.53;;;6.57;100.00
58473;BME280;44775;51.564;5.460;2023-11-21T08:41:15;101239.41;;;6.60;100.00
58473;BME280;44775;51.564;5.460;2023-11-21T08:43:41;101244.44;;;6.63;100.00
58473;BME280;44775;51.564;5.460;2023-11-21T08:46:07;101250.34;;;6.67;100.00
58473;BME280;44775;51.564;5.460;2023-11-21T08:48:35;101250.88;;;6.61;100.00
58473;BME280;44775;51.564;5.460;2023-11-21T08:51:01;101253.09;;;6.56;100.00
58473;BME280;44775;51.564;5.460;2023-11-21T08:53:26;101262.41;;;6.50;100.00
58473;BME280;44775;51.564;5.460;2023-11-21T08:55:51;101258.00;;;6.60;100.00
58473;BME280;44775;51.564;5.460;2023-11-21T08:58:19;101253.72;;;6.69;100.00
58473;BME280;44775;51.564;5.460;2023-11-21T09:00:44;101255.13;;;6.73;100.00
58473;BME280;44775;51.564;5.460;2023-11-21T09:03:11;101251.53;;;6.84;100.00
58473;BME280;44775;51.564;5.460;2023-11-21T09:05:40;101250.19;;;6.99;100.00
58473;BME280;44775;51.564;5.460;2023-11-21T09:08:06;101244.19;;;7.07;100.00
58473;BME280;44775;51.564;5.460;2023-11-21T09:10:33;101253.59;;;7.21;100.00
58473;BME280;44775;51.564;5.460;2023-11-21T09:13:02;101259.88;;;7.10;100.00
58473;BME280;44775;51.564;5.460;2023-11-21T09:15:27;101264.31;;;7.00;100.00
58473;BME280;44775;51.564;5.460;2023-11-21T09:17:53;101262.63;;;7.08;100.00
58473;BME280;44775;51.564;5.460;2023-11-21T09:20:18;101269.41;;;7.22;100.00
58473;BME280;44775;51.564;5.460;2023-11-21T09:22:48;101276.81;;;7.28;100.00
58473;BME280;44775;51.564;5.460;2023-11-21T09:25:13;101284.25;;;7.34;100.00
58473;BME280;44775;51.564;5.460;2023-11-21T09:27:39;101283.25;;;7.36;100.00
58473;BME280;44775;51.564;5.460;2023-11-21T09:30:05;101294.38;;;7.60;100.00
58473;BME280;44775;51.564;5.460;2023-11-21T09:32:31;101283.03;;;7.68;100.00
58473;BME280;44775;51.564;5.460;2023-11-21T09:34:56;101268.75;;;7.69;100.00
58473;BME280;44775;51.564;5.460;2023-11-21T09:37:23;101298.59;;;7.92;100.00
58473;BME280;44775;51.564;5.460;2023-11-21T09:39:49;101295.66;;;7.95;100.00
58473;BME280;44775;51.564;5.460;2023-11-21T09:42:23;101300.69;;;7.88;100.00
58473;BME280;44775;51.564;5.460;2023-11-21T09:45:11;101316.09;;;7.94;100.00
58473;BME280;44775;51.564;5.460;2023-11-21T09:47:38;101310.63;;;7.86;100.00
58473;BME280;44775;51.564;5.460;2023-11-21T09:50:04;101322.41;;;7.84;100.00
58473;BME280;44775;51.564;5.460;2023-11-21T09:52:57;101319.47;;;7.87;100.00
58473;BME280;44775;51.564;5.460;2023-11-21T09:55:25;101321.84;;;7.90;100.00
58473;BME280;44775;51.564;5.460;2023-11-21T09:57:52;101320.03;;;8.00;100.00
58473;BME280;44775;51.564;5.460;2023-11-21T10:00:18;101334.88;;;8.12;100.00
58473;BME280;44775;51.564;5.460;2023-11-21T10:02:46;101327.31;;;8.17;100.00
58473;BME280;44775;51.564;5.460;2023-11-21T10:05:14;101339.47;;;8.29;100.00
58473;BME280;44775;51.564;5.460;2023-11-21T10:07:41;101342.84;;;8.32;100.00
58473;BME280;44775;51.564;5.460;2023-11-21T10:10:10;101338.78;;;8.37;100.00
58473;BME280;44775;51.564;5.460;2023-11-21T10:12:36;101352.25;;;8.45;100.00
58473;BME280;44775;51.564;5.460;2023-11-21T10:15:07;101350.56;;;8.54;100.00
58473;BME280;44775;51.564;5.460;2023-11-21T10:17:35;101346.06;;;8.64;100.00
58473;BME280;44775;51.564;5.460;2023-11-21T10:20:09;101361.75;;;8.67;100.00
58473;BME280;44775;51.564;5.460;2023-11-21T10:22:39;101359.94;;;8.68;100.00
58473;BME280;44775;51.564;5.460;2023-11-21T10:25:06;101368.59;;;8.70;100.00
58473;BME280;44775;51.564;5.460;2023-11-21T10:27:33;101368.47;;;8.71;100.00
58473;BME280;44775;51.564;5.460;2023-11-21T10:30:03;101371.25;;;8.80;100.00
58473;BME280;44775;51.564;5.460;2023-11-21T10:32:29;101370.25;;;8.81;100.00
58473;BME280;44775;51.564;5.460;2023-11-21T10:35:01;101368.59;;;8.80;100.00
58473;BME280;44775;51.564;5.460;2023-11-21T10:37:32;101369.00;;;8.85;100.00
58473;BME280;44775;51.564;5.460;2023-11-21T10:39:58;101377.91;;;9.03;100.00
58473;BME280;44775;51.564;5.460;2023-11-21T10:42:24;101373.56;;;9.02;100.00
58473;BME280;44775;51.564;5.460;2023-11-21T10:44:49;101375.50;;;9.10;100.00
58473;BME280;44775;51.564;5.460;2023-11-21T10:47:16;101375.75;;;9.16;100.00
58473;BME280;44775;51.564;5.460;2023-11-21T10:49:44;101381.50;;;9.21;100.00
58473;BME280;44775;51.564;5.460;2023-11-21T10:52:09;101383.03;;;9.24;100.00
58473;BME280;44775;51.564;5.460;2023-11-21T10:54:42;101387.28;;;9.44;100.00
58473;BME280;44775;51.564;5.460;2023-11-21T10:57:08;101386.16;;;9.47;100.00
58473;BME280;44775;51.564;5.460;2023-11-21T10:59:34;101383.91;;;9.52;100.00
58473;BME280;44775;51.564;5.460;2023-11-21T11:02:01;101374.34;;;9.50;100.00
58473;BME280;44775;51.564;5.460;2023-11-21T11:04:33;101384.84;;;9.51;100.00
58473;BME280;44775;51.564;5.460;2023-11-21T11:07:02;101391.78;;;9.44;100.00
58473;BME280;44775;51.564;5.460;2023-11-21T11:09:30;101391.66;;;9.45;100.00
58473;BME280;44775;51.564;5.460;2023-11-21T11:11:57;101392.63;;;9.44;100.00
58473;BME280;44775;51.564;5.460;2023-11-21T11:14:24;101399.91;;;9.52;100.00
58473;BME280;44775;51.564;5.460;2023-11-21T11:16:53;101402.44;;;9.44;100.00
58473;BME280;44775;51.564;5.460;2023-11-21T11:19:20;101405.56;;;9.39;100.00
58473;BME280;44775;51.564;5.460;2023-11-21T11:24:59;101412.81;;;9.47;100.00
58473;BME280;44775;51.564;5.460;2023-11-21T11:27:57;101415.91;;;9.52;100.00
58473;BME280;44775;51.564;5.460;2023-11-21T11:31:13;101415.25;;;9.68;100.00
58473;BME280;44775;51.564;5.460;2023-11-21T11:33:48;101412.53;;;9.78;100.00
58473;BME280;44775;51.564;5.460;2023-11-21T11:36:25;101414.06;;;9.98;100.00
58473;BME280;44775;51.564;5.460;2023-11-21T11:38:53;101421.00;;;9.91;100.00
58473;BME280;44775;51.564;5.460;2023-11-21T11:41:30;101429.84;;;9.91;100.00
58473;BME280;44775;51.564;5.460;2023-11-21T11:43:58;101430.44;;;9.85;100.00
58473;BME280;44775;51.564;5.460;2023-11-21T11:46:46;101438.16;;;9.88;100.00
58473;BME280;44775;51.564;5.460;2023-11-21T11:49:28;101434.97;;;9.85;100.00
58473;BME280;44775;51.564;5.460;2023-11-21T11:52:36;101442.00;;;9.86;100.00
58473;BME280;44775;51.564;5.460;2023-11-21T11:55:04;101452.72;;;9.76;100.00
58473;BME280;44775;51.564;5.460;2023-11-21T11:57:30;101447.50;;;9.75;100.00
58473;BME280;44775;51.564;5.460;2023-11-21T12:00:20;101454.41;;;9.77;100.00
58473;BME280;44775;51.564;5.460;2023-11-21T12:02:54;101469.56;;;9.77;100.00
58473;BME280;44775;51.564;5.460;2023-11-21T12:05:22;101453.16;;;9.72;100.00
58473;BME280;44775;51.564;5.460;2023-11-21T12:07:53;101479.78;;;9.81;100.00
58473;BME280;44775;51.564;5.460;2023-11-21T12:10:20;101471.13;;;9.79;100.00
58473;BME280;44775;51.564;5.460;2023-11-21T12:12:47;101479.66;;;9.83;100.00
58473;BME280;44775;51.564;5.460;2023-11-21T12:15:13;101475.84;;;9.85;100.00
58473;BME280;44775;51.564;5.460;2023-11-21T12:17:39;101477.06;;;9.91;100.00
58473;BME280;44775;51.564;5.460;2023-11-21T12:20:05;101476.69;;;9.86;100.00
58473;BME280;44775;51.564;5.460;2023-11-21T12:22:43;101491.44;;;9.90;100.00
58473;BME280;44775;51.564;5.460;2023-11-21T12:25:08;101493.81;;;9.93;100.00
58473;BME280;44775;51.564;5.460;2023-11-21T12:27:33;101492.25;;;9.90;100.00
58473;BME280;44775;51.564;5.460;2023-11-21T12:30:00;101480.34;;;9.85;100.00
58473;BME280;44775;51.564;5.460;2023-11-21T12:32:25;101483.00;;;9.85;100.00
58473;BME280;44775;51.564;5.460;2023-11-21T12:34:51;101499.44;;;9.90;100.00
58473;BME280;44775;51.564;5.460;2023-11-21T12:37:17;101503.47;;;9.94;100.00
58473;BME280;44775;51.564;5.460;2023-11-21T12:39:43;101501.09;;;9.91;100.00
58473;BME280;44775;51.564;5.460;2023-11-21T12:42:09;101510.75;;;10.02;100.00
58473;BME280;44775;51.564;5.460;2023-11-21T12:44:35;101500.44;;;9.89;100.00
58473;BME280;44775;51.564;5.460;2023-11-21T12:47:01;101504.22;;;9.86;100.00
58473;BME280;44775;51.564;5.460;2023-11-21T12:49:26;101518.38;;;9.97;100.00
58473;BME280;44775;51.564;5.460;2023-11-21T12:51:53;101521.34;;;9.93;100.00
58473;BME280;44775;51.564;5.460;2023-11-21T12:54:19;101514.94;;;9.77;100.00